createdAt,value
2023-04-20T00:00:11.188Z,12.80
2023-04-20T00:02:38.741Z,12.70
2023-04-20T00:05:09.301Z,12.87
2023-04-20T00:07:36.805Z,13.16
2023-04-20T00:10:04.393Z,12.81
2023-04-20T00:12:31.076Z,12.85
2023-04-20T00:14:57.737Z,13.08
2023-04-20T00:17:24.386Z,12.52
2023-04-20T00:19:51.439Z,12.51
2023-04-20T00:22:18.056Z,12.51
2023-04-20T00:24:44.649Z,12.84
2023-04-20T00:27:11.929Z,12.77
2023-04-20T00:29:38.556Z,13.09
2023-04-20T00:32:05.460Z,12.97
2023-04-20T00:34:32.102Z,12.70
2023-04-20T00:36:58.670Z,12.64
2023-04-20T00:39:25.415Z,12.40
2023-04-20T00:41:52.096Z,12.30
2023-04-20T00:44:18.691Z,12.46
2023-04-20T00:46:46.568Z,12.61
2023-04-20T00:49:13.292Z,12.22
2023-04-20T00:51:40.035Z,12.08
2023-04-20T00:54:07.028Z,12.04
2023-04-20T00:56:34.252Z,12.29
2023-04-20T00:59:02.385Z,11.87
2023-04-20T01:01:29.116Z,11.70
2023-04-20T01:03:56.095Z,11.91
2023-04-20T01:06:22.857Z,12.16
2023-04-20T01:08:51.152Z,12.59
2023-04-20T01:11:18.310Z,12.19
2023-04-20T01:13:45.565Z,12.39
2023-04-20T01:16:13.035Z,12.48
2023-04-20T01:18:51.145Z,11.88
2023-04-20T01:21:20.019Z,12.12
2023-04-20T01:23:46.953Z,12.18
2023-04-20T01:26:16.884Z,12.16
2023-04-20T01:28:44.186Z,12.40
2023-04-20T01:31:11.896Z,12.28
2023-04-20T01:33:38.953Z,11.39
2023-04-20T01:36:07.428Z,11.80
2023-04-20T01:38:34.877Z,11.72
2023-04-20T01:41:04.511Z,11.81
2023-04-20T01:43:31.731Z,12.10
2023-04-20T01:45:59.667Z,12.47
2023-04-20T01:48:26.364Z,12.13
2023-04-20T01:50:53.542Z,11.48
2023-04-20T01:53:20.982Z,11.70
2023-04-20T01:55:48.594Z,12.12
2023-04-20T01:58:15.771Z,12.23
2023-04-20T02:00:42.490Z,12.34
2023-04-20T02:03:09.460Z,12.07
2023-04-20T02:05:36.152Z,11.83
2023-04-20T02:08:02.847Z,12.00
2023-04-20T02:10:29.498Z,12.14
2023-04-20T02:12:56.219Z,11.91
2023-04-20T02:15:22.903Z,12.12
2023-04-20T02:17:52.541Z,12.12
2023-04-20T02:20:22.401Z,12.04
2023-04-20T02:22:49.074Z,11.79
2023-04-20T02:25:15.787Z,11.66
2023-04-20T02:27:42.673Z,12.24
2023-04-20T02:30:10.569Z,12.19
2023-04-20T02:32:37.575Z,12.51
2023-04-20T02:35:04.766Z,12.48
2023-04-20T02:37:31.643Z,12.78
2023-04-20T02:39:58.437Z,12.56
2023-04-20T02:42:25.122Z,12.25
2023-04-20T02:44:52.896Z,12.46
2023-04-20T02:47:19.848Z,12.26
2023-04-20T02:49:47.336Z,12.42
2023-04-20T02:52:14.227Z,12.07
2023-04-20T02:54:41.032Z,12.25
2023-04-20T02:57:07.701Z,11.84
2023-04-20T02:59:34.420Z,11.91
2023-04-20T03:02:01.122Z,11.86
2023-04-20T03:04:28.135Z,11.92
2023-04-20T03:06:54.887Z,12.12
2023-04-20T03:09:22.134Z,11.76
2023-04-20T03:11:49.636Z,12.18
2023-04-20T03:14:16.908Z,12.61
2023-04-20T03:16:43.764Z,12.43
2023-04-20T03:19:10.711Z,12.47
2023-04-20T03:21:37.369Z,12.34
2023-04-20T03:24:06.974Z,12.28
2023-04-20T03:26:33.592Z,11.79
2023-04-20T03:29:02.183Z,12.01
2023-04-20T03:31:28.812Z,12.40
2023-04-20T03:33:55.540Z,12.36
2023-04-20T03:36:22.272Z,12.48
2023-04-20T03:38:48.890Z,12.25
2023-04-20T03:41:15.984Z,12.30
2023-04-20T03:43:42.570Z,12.35
2023-04-20T03:46:09.241Z,12.08
2023-04-20T03:48:35.917Z,11.66
2023-04-20T03:51:02.663Z,11.50
2023-04-20T03:53:29.337Z,12.10
2023-04-20T03:55:56.206Z,12.27
2023-04-20T03:58:22.903Z,11.54
2023-04-20T04:00:49.556Z,11.46
2023-04-20T04:03:16.389Z,11.50
2023-04-20T04:05:43.338Z,11.50
2023-04-20T04:08:09.986Z,11.69
2023-04-20T04:10:36.631Z,11.73
2023-04-20T04:13:03.302Z,11.89
2023-04-20T04:15:29.903Z,12.10
2023-04-20T04:17:56.573Z,11.75
2023-04-20T04:20:23.258Z,11.79
2023-04-20T04:22:49.928Z,11.88
2023-04-20T04:25:17.455Z,12.07
2023-04-20T04:27:46.481Z,11.50
2023-04-20T04:30:13.810Z,11.16
2023-04-20T04:32:41.372Z,11.29
2023-04-20T04:35:08.510Z,11.72
2023-04-20T04:37:35.140Z,11.73
2023-04-20T04:40:04.437Z,11.72
2023-04-20T04:42:31.194Z,11.95
2023-04-20T04:44:58.582Z,12.37
2023-04-20T04:47:25.629Z,12.69
2023-04-20T04:49:52.330Z,12.76
2023-04-20T04:52:18.976Z,12.22
2023-04-20T04:54:45.944Z,12.49
2023-04-20T04:57:12.730Z,12.28
2023-04-20T04:59:39.376Z,12.45
2023-04-20T05:02:06.045Z,12.07
2023-04-20T05:04:32.868Z,12.25
2023-04-20T05:06:59.647Z,12.28
2023-04-20T05:09:26.669Z,12.01
2023-04-20T05:11:53.253Z,12.23
2023-04-20T05:14:19.935Z,12.50
2023-04-20T05:16:46.545Z,11.97
2023-04-20T05:19:13.229Z,12.17
2023-04-20T05:21:40.007Z,11.82
2023-04-20T05:24:07.311Z,11.75
2023-04-20T05:26:33.970Z,12.04
2023-04-20T05:29:00.626Z,11.70
2023-04-20T05:31:27.512Z,11.96
2023-04-20T05:33:54.146Z,11.91
2023-04-20T05:36:20.990Z,12.18
2023-04-20T05:38:47.642Z,11.93
2023-04-20T05:41:14.265Z,11.92
2023-04-20T05:43:41.103Z,11.76
2023-04-20T05:46:07.963Z,12.08
2023-04-20T05:48:34.653Z,12.07
2023-04-20T05:51:01.287Z,12.57
2023-04-20T05:53:27.886Z,12.41
2023-04-20T05:55:54.489Z,12.55
2023-04-20T05:58:21.253Z,11.83
2023-04-20T06:00:47.866Z,12.37
2023-04-20T06:03:14.680Z,12.37
2023-04-20T06:05:41.620Z,12.24
2023-04-20T06:08:08.443Z,12.12
2023-04-20T06:10:36.316Z,11.87
2023-04-20T06:13:03.080Z,12.16
2023-04-20T06:15:30.145Z,12.30
2023-04-20T06:17:57.104Z,12.26
2023-04-20T06:20:23.888Z,11.95
2023-04-20T06:22:50.617Z,12.45
2023-04-20T06:25:17.240Z,12.33
2023-04-20T06:27:43.904Z,12.22
2023-04-20T06:30:11.763Z,12.31
2023-04-20T06:32:38.600Z,12.17
2023-04-20T06:35:06.639Z,12.18
2023-04-20T06:37:33.331Z,12.16
2023-04-20T06:39:59.971Z,12.25
2023-04-20T06:42:27.237Z,12.33
2023-04-20T06:44:53.894Z,12.61
2023-04-20T06:47:20.841Z,12.14
2023-04-20T06:49:47.515Z,11.91
2023-04-20T06:52:14.116Z,11.90
2023-04-20T06:54:40.813Z,12.11
2023-04-20T06:57:07.472Z,12.12
2023-04-20T06:59:34.069Z,11.85
2023-04-20T07:02:02.526Z,12.36
2023-04-20T07:04:29.416Z,12.53
2023-04-20T07:06:56.161Z,12.71
2023-04-20T07:09:23.285Z,12.11
2023-04-20T07:11:50.108Z,12.28
2023-04-20T07:14:16.765Z,12.49
2023-04-20T07:16:43.548Z,12.92
2023-04-20T07:19:10.415Z,12.74
2023-04-20T07:21:37.237Z,12.57
2023-04-20T07:24:04.178Z,12.74
2023-04-20T07:26:31.249Z,13.04
2023-04-20T07:28:57.919Z,12.89
2023-04-20T07:31:24.664Z,13.33
2023-04-20T07:33:51.446Z,13.44
2023-04-20T07:36:18.185Z,12.50
2023-04-20T07:38:44.805Z,12.96
2023-04-20T07:41:11.752Z,12.71
2023-04-20T07:43:39.241Z,12.68
2023-04-20T07:46:06.077Z,13.16
2023-04-20T07:48:34.379Z,13.67
2023-04-20T07:51:02.232Z,13.67
2023-04-20T07:53:29.854Z,14.04
2023-04-20T07:55:56.564Z,13.83
2023-04-20T07:58:23.223Z,14.06
2023-04-20T08:00:49.864Z,13.80
2023-04-20T08:03:16.573Z,13.64
2023-04-20T08:05:43.296Z,13.61
2023-04-20T08:08:10.273Z,13.96
2023-04-20T08:10:37.302Z,13.91
2023-04-20T08:13:04.003Z,14.78
2023-04-20T08:15:31.632Z,14.07
2023-04-20T08:17:58.616Z,13.96
2023-04-20T08:20:25.430Z,14.08
2023-04-20T08:22:52.928Z,13.39
2023-04-20T08:25:19.676Z,13.47
2023-04-20T08:27:46.492Z,13.06
2023-04-20T08:30:13.254Z,14.02
2023-04-20T08:32:41.203Z,13.42
2023-04-20T08:35:08.680Z,13.23
2023-04-20T08:37:35.781Z,13.80
2023-04-20T08:40:02.466Z,13.37
2023-04-20T08:42:29.195Z,13.37
2023-04-20T08:44:55.873Z,13.72
2023-04-20T08:47:22.685Z,13.56
2023-04-20T08:49:53.714Z,13.23
2023-04-20T08:52:20.570Z,13.00
2023-04-20T08:54:56.002Z,13.30
2023-04-20T08:57:23.082Z,13.59
2023-04-20T08:59:49.848Z,13.33
2023-04-20T09:02:16.636Z,13.58
2023-04-20T09:04:43.561Z,13.62
2023-04-20T09:07:21.598Z,13.78
2023-04-20T09:10:00.104Z,13.08
2023-04-20T09:12:28.258Z,13.30
2023-04-20T09:14:55.969Z,12.90
2023-04-20T09:17:34.324Z,13.16
2023-04-20T09:20:01.167Z,13.30
2023-04-20T09:22:37.559Z,14.03
2023-04-20T09:25:17.361Z,13.81
2023-04-20T09:27:43.960Z,14.07
2023-04-20T09:30:11.245Z,13.86
2023-04-20T09:32:37.940Z,13.97
2023-04-20T09:35:04.829Z,14.21
2023-04-20T09:37:31.525Z,14.39
2023-04-20T09:40:00.365Z,14.11
2023-04-20T09:42:28.892Z,14.78
2023-04-20T09:44:56.116Z,14.68
2023-04-20T09:47:23.076Z,15.29
2023-04-20T09:49:50.553Z,15.35
2023-04-20T09:52:18.670Z,14.92
2023-04-20T09:54:45.838Z,15.32
2023-04-20T09:57:14.254Z,15.03
2023-04-20T09:59:43.715Z,14.55
2023-04-20T10:02:14.320Z,15.13
2023-04-20T10:04:58.060Z,15.09
2023-04-20T10:07:30.725Z,15.31
2023-04-20T10:10:09.399Z,15.24
2023-04-20T10:12:53.033Z,15.54
2023-04-20T10:15:21.776Z,14.86
2023-04-20T10:17:49.098Z,14.70
2023-04-20T10:20:24.614Z,14.59
2023-04-20T10:23:06.154Z,14.72
2023-04-20T10:25:32.794Z,15.35
2023-04-20T10:28:04.628Z,15.40
2023-04-20T10:30:32.661Z,15.71
2023-04-20T10:33:11.351Z,15.54
2023-04-20T10:35:49.330Z,15.35
2023-04-20T10:38:16.540Z,15.95
2023-04-20T10:40:43.287Z,16.04
2023-04-20T10:43:21.433Z,15.66
2023-04-20T10:45:49.571Z,15.69
2023-04-20T10:48:18.126Z,15.69
2023-04-20T10:50:45.438Z,16.31
2023-04-20T10:53:23.266Z,16.11
2023-04-20T10:56:00.257Z,15.35
2023-04-20T10:58:27.688Z,15.21
2023-04-20T11:01:01.632Z,15.53
2023-04-20T11:03:29.643Z,15.74
2023-04-20T11:06:00.972Z,15.55
2023-04-20T11:08:40.809Z,15.98
2023-04-20T11:11:28.299Z,16.30
2023-04-20T11:14:11.917Z,16.41
2023-04-20T11:19:09.419Z,16.31
2023-04-20T11:21:41.487Z,16.68
2023-04-20T11:24:21.764Z,16.35
2023-04-20T11:26:54.369Z,16.93
2023-04-20T11:29:38.887Z,17.46
2023-04-20T11:32:10.696Z,16.73
2023-04-20T11:34:39.362Z,17.29
2023-04-20T11:37:10.612Z,17.76
2023-04-20T11:39:38.155Z,17.48
2023-04-20T11:42:05.800Z,17.98
2023-04-20T11:44:33.051Z,18.35
2023-04-20T11:47:00.032Z,17.68
2023-04-20T11:49:29.190Z,17.25
2023-04-20T11:51:56.058Z,17.46
2023-04-20T11:54:24.350Z,16.90
2023-04-20T11:56:51.341Z,17.25
2023-04-20T11:59:20.149Z,17.36
2023-04-20T12:01:48.220Z,17.68
2023-04-20T12:04:15.805Z,16.59
2023-04-20T12:06:42.832Z,17.46
2023-04-20T12:09:09.743Z,17.28
2023-04-20T12:11:36.544Z,16.64
2023-04-20T12:14:04.595Z,16.10
2023-04-20T12:16:31.346Z,15.99
2023-04-20T12:18:58.069Z,15.74
2023-04-20T12:21:24.648Z,15.08
2023-04-20T12:23:51.371Z,14.69
2023-04-20T12:26:18.130Z,14.46
2023-04-20T12:28:45.475Z,14.64
2023-04-20T12:31:12.419Z,14.89
2023-04-20T12:33:39.111Z,14.70
2023-04-20T12:36:06.098Z,15.00
2023-04-20T12:38:32.763Z,15.39
2023-04-20T12:40:59.470Z,15.57
2023-04-20T12:43:26.139Z,15.86
2023-04-20T12:45:52.801Z,15.47
2023-04-20T12:48:19.571Z,15.84
2023-04-20T12:50:46.244Z,15.38
2023-04-20T12:53:12.862Z,15.92
2023-04-20T12:55:39.534Z,16.07
2023-04-20T12:58:06.349Z,16.27
2023-04-20T13:00:33.092Z,16.58
2023-04-20T13:03:00.050Z,16.66
2023-04-20T13:05:26.961Z,16.79
2023-04-20T13:07:53.648Z,16.57
2023-04-20T13:10:20.509Z,16.76
2023-04-20T13:12:47.223Z,17.13
2023-04-20T13:15:13.849Z,16.68
2023-04-20T13:17:41.430Z,17.23
2023-04-20T13:20:08.553Z,16.89
2023-04-20T13:22:37.228Z,16.75
2023-04-20T13:25:10.491Z,16.74
2023-04-20T13:27:37.092Z,16.61
2023-04-20T13:30:07.888Z,16.64
2023-04-20T13:32:35.492Z,16.34
2023-04-20T13:35:03.856Z,16.82
2023-04-20T13:37:33.124Z,16.06
2023-04-20T13:40:00.516Z,16.57
2023-04-20T13:42:27.150Z,16.02
2023-04-20T13:44:53.785Z,15.72
2023-04-20T13:47:20.586Z,15.72
2023-04-20T13:49:47.228Z,16.45
2023-04-20T13:52:13.830Z,16.71
2023-04-20T13:54:40.713Z,16.56
2023-04-20T13:57:07.330Z,16.86
2023-04-20T13:59:33.950Z,17.19
2023-04-20T14:02:00.759Z,17.09
2023-04-20T14:04:27.593Z,17.00
2023-04-20T14:06:54.330Z,16.94
2023-04-20T14:09:21.492Z,16.90
2023-04-20T14:11:50.413Z,16.43
2023-04-20T14:14:19.410Z,16.44
2023-04-20T14:16:47.835Z,16.60
2023-04-20T14:19:14.926Z,16.97
2023-04-20T14:21:44.187Z,16.82
2023-04-20T14:24:11.745Z,16.45
2023-04-20T14:26:38.457Z,16.61
2023-04-20T14:29:08.278Z,16.37
2023-04-20T14:31:35.516Z,16.48
2023-04-20T14:34:02.639Z,15.84
2023-04-20T14:36:30.183Z,14.84
2023-04-20T14:38:56.814Z,14.94
2023-04-20T14:41:23.585Z,15.51
2023-04-20T14:43:50.223Z,15.66
2023-04-20T14:46:19.004Z,15.87
2023-04-20T14:48:46.390Z,15.89
2023-04-20T14:51:13.738Z,15.87
2023-04-20T14:53:40.460Z,15.84
2023-04-20T14:56:07.361Z,15.73
2023-04-20T14:58:34.258Z,16.04
2023-04-20T15:01:00.994Z,16.06
2023-04-20T15:03:27.975Z,15.89
2023-04-20T15:06:00.218Z,16.15
2023-04-20T15:08:27.367Z,15.71
2023-04-20T15:10:56.686Z,15.81
2023-04-20T15:13:24.033Z,15.66
2023-04-20T15:15:52.654Z,15.45
2023-04-20T15:18:20.920Z,14.85
2023-04-20T15:20:47.544Z,14.78
2023-04-20T15:23:14.164Z,15.13
2023-04-20T15:25:40.734Z,15.17
2023-04-20T15:28:07.317Z,15.05
2023-04-20T15:30:33.960Z,15.36
2023-04-20T15:33:04.610Z,15.29
2023-04-20T15:35:32.227Z,15.51
2023-04-20T15:37:59.119Z,16.09
2023-04-20T15:40:27.501Z,15.92
2023-04-20T15:42:57.666Z,15.78
2023-04-20T15:45:24.676Z,15.73
2023-04-20T15:47:51.677Z,16.20
2023-04-20T15:50:18.562Z,16.46
2023-04-20T15:52:45.814Z,16.21
2023-04-20T15:55:12.565Z,16.11
2023-04-20T15:57:39.259Z,16.51
2023-04-20T16:00:07.303Z,16.63
2023-04-20T16:02:34.264Z,16.82
2023-04-20T16:05:01.198Z,16.56
2023-04-20T16:07:28.078Z,16.26
2023-04-20T16:09:54.675Z,16.36
2023-04-20T16:12:21.381Z,16.46
2023-04-20T16:14:48.667Z,16.30
2023-04-20T16:17:15.710Z,16.59
2023-04-20T16:19:42.358Z,16.37
2023-04-20T16:22:09.018Z,16.28
2023-04-20T16:24:35.705Z,15.92
2023-04-20T16:27:02.557Z,15.95
2023-04-20T16:29:29.210Z,16.41
2023-04-20T16:31:56.479Z,16.55
2023-04-20T16:34:24.494Z,16.55
2023-04-20T16:36:51.200Z,16.57
2023-04-20T16:39:18.627Z,16.50
2023-04-20T16:41:45.628Z,16.68
2023-04-20T16:44:16.586Z,16.60
2023-04-20T16:46:44.243Z,16.60
2023-04-20T16:49:10.924Z,16.57
2023-04-20T16:51:37.561Z,16.43
2023-04-20T16:54:04.388Z,16.56
2023-04-20T16:56:31.026Z,16.63
2023-04-20T16:58:58.258Z,16.62
2023-04-20T17:01:25.070Z,16.32
2023-04-20T17:03:51.863Z,16.34
2023-04-20T17:06:18.563Z,16.10
2023-04-20T17:08:45.196Z,15.88
2023-04-20T17:11:13.007Z,15.70
2023-04-20T17:13:39.613Z,15.73
2023-04-20T17:16:06.256Z,15.90
2023-04-20T17:18:34.350Z,16.03
2023-04-20T17:21:02.305Z,15.93
2023-04-20T17:23:29.729Z,15.97
2023-04-20T17:25:56.408Z,15.70
2023-04-20T17:28:23.078Z,16.09
2023-04-20T17:30:49.810Z,16.32
2023-04-20T17:33:16.537Z,15.53
2023-04-20T17:35:43.289Z,15.38
2023-04-20T17:38:09.904Z,15.67
2023-04-20T17:40:36.588Z,16.03
2023-04-20T17:43:03.247Z,16.09
2023-04-20T17:45:29.828Z,15.63
2023-04-20T17:47:56.647Z,16.02
2023-04-20T17:50:23.501Z,16.26
2023-04-20T17:52:51.496Z,15.99
2023-04-20T17:55:18.330Z,15.56
2023-04-20T17:57:45.009Z,15.02
2023-04-20T18:00:12.130Z,14.82
2023-04-20T18:02:39.896Z,15.16
2023-04-20T18:05:07.228Z,15.02
2023-04-20T18:07:34.599Z,14.74
2023-04-20T18:10:01.503Z,14.83
2023-04-20T18:12:28.194Z,15.11
2023-04-20T18:14:54.910Z,14.78
2023-04-20T18:17:21.571Z,15.30
2023-04-20T18:19:48.339Z,15.18
2023-04-20T18:22:15.449Z,15.76
2023-04-20T18:24:42.113Z,15.27
2023-04-20T18:27:09.094Z,14.92
2023-04-20T18:29:35.912Z,15.50
2023-04-20T18:32:02.631Z,15.58
2023-04-20T18:34:32.042Z,15.46
2023-04-20T18:36:59.206Z,15.46
2023-04-20T18:39:26.405Z,15.47
2023-04-20T18:41:53.091Z,15.39
2023-04-20T18:44:20.196Z,15.61
2023-04-20T18:46:47.272Z,14.90
2023-04-20T18:49:13.950Z,14.96
2023-04-20T18:51:40.904Z,14.94
2023-04-20T18:56:58.833Z,15.06
2023-04-20T18:59:25.613Z,15.35
2023-04-20T19:01:52.511Z,15.52
2023-04-20T19:04:19.832Z,15.55
2023-04-20T19:06:46.713Z,14.77
2023-04-20T19:09:13.505Z,14.75
2023-04-20T19:11:40.161Z,15.13
2023-04-20T19:14:06.935Z,14.74
2023-04-20T19:16:34.273Z,14.52
2023-04-20T19:19:03.194Z,15.00
2023-04-20T19:21:30.437Z,15.31
2023-04-20T19:23:57.170Z,15.29
2023-04-20T19:26:25.058Z,15.06
2023-04-20T19:28:51.761Z,14.74
2023-04-20T19:31:18.413Z,14.95
2023-04-20T19:33:45.018Z,15.00
2023-04-20T19:36:11.736Z,15.06
2023-04-20T19:38:38.753Z,14.98
2023-04-20T19:41:06.487Z,14.98
2023-04-20T19:43:33.241Z,14.87
2023-04-20T19:46:00.073Z,15.21
2023-04-20T19:48:26.834Z,15.06
2023-04-20T19:50:56.286Z,15.18
2023-04-20T19:53:23.297Z,15.37
2023-04-20T19:55:49.921Z,15.30
2023-04-20T19:58:16.503Z,14.58
2023-04-20T20:00:43.139Z,14.49
2023-04-20T20:03:11.652Z,14.41
2023-04-20T20:05:38.514Z,14.31
2023-04-20T20:08:05.139Z,14.40
2023-04-20T20:10:32.090Z,14.83
2023-04-20T20:12:58.679Z,14.62
2023-04-20T20:15:25.372Z,14.59
2023-04-20T20:17:55.416Z,14.75
2023-04-20T20:20:30.222Z,14.56
2023-04-20T20:22:57.274Z,14.41
2023-04-20T20:25:24.410Z,14.69
2023-04-20T20:27:51.458Z,14.94
2023-04-20T20:30:18.513Z,14.90
2023-04-20T20:32:45.222Z,14.83
2023-04-20T20:35:13.147Z,14.44
2023-04-20T20:37:45.390Z,14.39
2023-04-20T20:40:14.991Z,14.68
2023-04-20T20:42:45.319Z,14.50
2023-04-20T20:45:12.858Z,14.91
2023-04-20T20:47:41.201Z,15.02
2023-04-20T20:50:08.913Z,14.22
2023-04-20T20:52:35.670Z,14.96
2023-04-20T20:55:02.352Z,14.89
2023-04-20T20:57:28.997Z,14.33
2023-04-20T20:59:55.690Z,14.87
2023-04-20T21:02:22.495Z,14.64
2023-04-20T21:04:49.155Z,14.12
2023-04-20T21:07:15.920Z,14.08
2023-04-20T21:09:42.622Z,14.23
2023-04-20T21:12:09.401Z,14.68
2023-04-20T21:14:37.296Z,14.62
2023-04-20T21:17:04.715Z,14.51
2023-04-20T21:19:31.937Z,14.03
2023-04-20T21:21:58.890Z,13.94
2023-04-20T21:24:25.720Z,13.68
2023-04-20T21:26:52.612Z,13.60
2023-04-20T21:29:19.834Z,13.61
2023-04-20T21:31:46.907Z,13.25
2023-04-20T21:34:13.604Z,13.82
2023-04-20T21:36:40.200Z,14.18
2023-04-20T21:39:06.926Z,14.50
2023-04-20T21:41:33.558Z,14.28
2023-04-20T21:44:02.079Z,14.49
2023-04-20T21:46:28.797Z,14.50
2023-04-20T21:48:55.620Z,14.21
2023-04-20T21:51:22.373Z,14.46
2023-04-20T21:53:49.449Z,13.70
2023-04-20T21:56:16.173Z,14.18
2023-04-20T21:58:42.861Z,14.39
2023-04-20T22:01:09.540Z,13.87
2023-04-20T22:03:37.632Z,13.72
2023-04-20T22:06:05.263Z,13.93
2023-04-20T22:08:32.059Z,13.92
2023-04-20T22:10:58.678Z,14.05
2023-04-20T22:13:25.497Z,13.96
2023-04-20T22:15:52.791Z,13.78
2023-04-20T22:18:19.660Z,13.70
2023-04-20T22:20:46.304Z,14.21
2023-04-20T22:23:12.866Z,13.76
2023-04-20T22:25:40.739Z,13.85
2023-04-20T22:28:07.438Z,13.53
2023-04-20T22:30:34.260Z,13.50
2023-04-20T22:33:01.427Z,13.06
2023-04-20T22:35:28.966Z,13.64
2023-04-20T22:37:56.447Z,13.29
2023-04-20T22:40:23.997Z,13.19
2023-04-20T22:42:51.089Z,13.30
2023-04-20T22:45:20.004Z,13.29
2023-04-20T22:47:47.337Z,13.58
2023-04-20T22:50:14.248Z,13.56
2023-04-20T22:52:41.659Z,12.64
2023-04-20T22:55:10.155Z,12.72
2023-04-20T22:57:37.334Z,12.40
2023-04-20T23:00:07.943Z,12.90
2023-04-20T23:02:34.702Z,13.40
2023-04-20T23:05:01.749Z,13.05
2023-04-20T23:07:28.339Z,13.59
2023-04-20T23:09:56.533Z,13.25
2023-04-20T23:12:23.386Z,13.04
2023-04-20T23:14:50.928Z,13.36
2023-04-20T23:17:17.562Z,13.08
2023-04-20T23:19:44.167Z,12.74
2023-04-20T23:22:11.039Z,13.49
2023-04-20T23:24:37.703Z,13.52
2023-04-20T23:27:04.476Z,13.32
2023-04-20T23:29:31.178Z,13.07
2023-04-20T23:31:57.980Z,12.98
2023-04-20T23:34:25.033Z,12.57
2023-04-20T23:36:53.877Z,12.79
2023-04-20T23:39:21.142Z,12.25
2023-04-20T23:41:47.920Z,12.42
2023-04-20T23:44:14.683Z,12.91
2023-04-20T23:46:41.377Z,12.22
2023-04-20T23:49:08.064Z,12.79
2023-04-20T23:51:34.674Z,12.31
2023-04-20T23:54:01.920Z,12.39
2023-04-20T23:56:28.536Z,12.99
2023-04-20T23:58:55.269Z,12.98
